createdAt,value
2019-02-12T00:02:25.225Z,1.53
2019-02-12T00:04:49.650Z,1.40
2019-02-12T00:07:14.124Z,1.63
2019-02-12T00:09:38.549Z,1.60
2019-02-12T00:12:03.008Z,1.50
2019-02-12T00:14:27.447Z,1.77
2019-02-12T00:16:51.844Z,1.87
2019-02-12T00:19:16.268Z,1.57
2019-02-12T00:21:40.674Z,1.77
2019-02-12T00:24:05.107Z,2.00
2019-02-12T00:26:29.509Z,1.67
2019-02-12T00:28:54.056Z,2.00
2019-02-12T00:31:18.476Z,1.83
2019-02-12T00:33:42.880Z,1.30
2019-02-12T00:36:07.322Z,1.77
2019-02-12T00:38:31.742Z,2.43
2019-02-12T00:40:56.175Z,1.83
2019-02-12T00:43:20.576Z,1.67
2019-02-12T00:45:45.007Z,1.60
2019-02-12T00:48:09.406Z,1.70
2019-02-12T00:50:33.848Z,2.00
2019-02-12T00:52:58.238Z,1.50
2019-02-12T00:55:22.631Z,1.43
2019-02-12T00:57:47.517Z,1.77
2019-02-12T01:00:14.474Z,1.90
2019-02-12T01:02:38.959Z,1.77
2019-02-12T01:05:04.433Z,1.80
2019-02-12T01:07:28.980Z,1.80
2019-02-12T01:09:53.395Z,1.53
2019-02-12T01:12:17.816Z,1.70
2019-02-12T01:14:42.222Z,1.30
2019-02-12T01:17:06.646Z,1.73
2019-02-12T01:19:31.053Z,1.40
2019-02-12T01:21:55.444Z,1.70
2019-02-12T01:24:19.867Z,1.83
2019-02-12T01:26:44.280Z,1.40
2019-02-12T01:29:08.700Z,2.10
2019-02-12T01:31:33.096Z,1.50
2019-02-12T01:33:57.521Z,1.77
2019-02-12T01:36:21.925Z,1.70
2019-02-12T01:38:46.490Z,1.83
2019-02-12T01:41:10.959Z,1.43
2019-02-12T01:43:35.381Z,1.60
2019-02-12T01:45:59.775Z,1.70
2019-02-12T01:48:24.217Z,1.97
2019-02-12T01:50:49.111Z,1.93
2019-02-12T01:53:13.530Z,1.63
2019-02-12T01:55:37.928Z,1.70
2019-02-12T01:58:02.354Z,1.60
2019-02-12T02:00:26.788Z,1.77
2019-02-12T02:02:51.187Z,2.13
2019-02-12T02:05:15.674Z,1.90
2019-02-12T02:07:40.070Z,2.37
2019-02-12T02:10:06.699Z,1.77
2019-02-12T02:12:31.101Z,1.50
2019-02-12T02:14:55.542Z,1.80
2019-02-12T02:17:19.946Z,1.90
2019-02-12T02:19:44.378Z,1.90
2019-02-12T02:22:08.812Z,1.70
2019-02-12T02:24:33.292Z,1.53
2019-02-12T02:26:57.694Z,1.57
2019-02-12T02:29:22.134Z,2.07
2019-02-12T02:31:46.541Z,1.50
2019-02-12T02:34:10.930Z,2.10
2019-02-12T02:36:35.349Z,1.87
2019-02-12T02:38:59.763Z,1.50
2019-02-12T02:41:24.184Z,1.90
2019-02-12T02:43:48.691Z,1.90
2019-02-12T02:46:13.148Z,1.87
2019-02-12T02:48:37.494Z,1.90
2019-02-12T02:51:01.919Z,2.00
2019-02-12T02:53:26.321Z,1.90
2019-02-12T02:55:50.747Z,1.67
2019-02-12T02:58:15.147Z,1.60
2019-02-12T03:00:39.638Z,2.03
2019-02-12T03:03:04.055Z,1.60
2019-02-12T03:05:28.481Z,1.83
2019-02-12T03:07:52.880Z,1.93
2019-02-12T03:10:17.275Z,2.00
2019-02-12T03:12:41.781Z,1.57
2019-02-12T03:15:08.620Z,1.80
2019-02-12T03:17:33.027Z,1.90
2019-02-12T03:19:57.437Z,1.63
2019-02-12T03:22:21.870Z,2.07
2019-02-12T03:24:46.271Z,1.20
2019-02-12T03:27:10.697Z,1.57
2019-02-12T03:29:35.095Z,1.97
2019-02-12T03:31:59.516Z,2.00
2019-02-12T03:34:23.942Z,2.03
2019-02-12T03:36:48.354Z,1.70
2019-02-12T03:39:12.778Z,1.30
2019-02-12T03:41:37.173Z,1.90
2019-02-12T03:44:01.595Z,1.30
2019-02-12T03:46:25.994Z,1.63
2019-02-12T03:48:50.422Z,1.57
2019-02-12T03:51:14.888Z,1.63
2019-02-12T03:53:39.309Z,1.83
2019-02-12T03:56:03.862Z,1.60
2019-02-12T03:58:28.378Z,1.80
2019-02-12T04:00:52.844Z,1.43
2019-02-12T04:03:17.410Z,1.27
2019-02-12T04:05:41.804Z,1.93
2019-02-12T04:08:06.560Z,1.40
2019-02-12T04:10:31.064Z,2.00
2019-02-12T04:12:55.636Z,1.20
2019-02-12T04:15:20.031Z,1.33
2019-02-12T04:17:44.424Z,1.30
2019-02-12T04:20:08.992Z,1.50
2019-02-12T04:22:33.387Z,1.60
2019-02-12T04:24:57.816Z,1.50
2019-02-12T04:27:22.221Z,1.60
2019-02-12T04:29:46.653Z,1.93
2019-02-12T04:32:11.057Z,1.70
2019-02-12T04:34:35.497Z,1.70
2019-02-12T04:36:59.893Z,1.80
2019-02-12T04:39:24.326Z,1.53
2019-02-12T04:41:48.726Z,1.30
2019-02-12T04:44:13.175Z,1.40
2019-02-12T04:46:37.565Z,1.83
2019-02-12T04:49:02.008Z,2.07
2019-02-12T04:51:26.397Z,1.43
2019-02-12T04:53:50.837Z,1.67
2019-02-12T04:56:15.259Z,1.50
2019-02-12T04:58:39.648Z,1.40
2019-02-12T05:01:04.147Z,1.40
2019-02-12T05:03:28.547Z,1.50
2019-02-12T05:05:52.962Z,1.30
2019-02-12T05:08:17.370Z,1.60
2019-02-12T05:10:56.717Z,1.27
2019-02-12T05:13:21.155Z,1.57
2019-02-12T05:15:45.545Z,1.30
2019-02-12T05:18:09.973Z,1.57
2019-02-12T05:20:34.366Z,1.20
2019-02-12T05:22:58.847Z,2.63
2019-02-12T05:25:23.304Z,1.70
2019-02-12T05:27:47.739Z,1.63
2019-02-12T05:30:15.646Z,2.00
2019-02-12T05:32:40.141Z,1.60
2019-02-12T05:35:05.287Z,1.47
2019-02-12T05:37:29.682Z,1.70
2019-02-12T05:39:54.111Z,1.67
2019-02-12T05:42:18.502Z,2.20
2019-02-12T05:44:42.948Z,1.87
2019-02-12T05:47:07.341Z,1.60
2019-02-12T05:49:31.752Z,2.00
2019-02-12T05:51:56.150Z,1.57
2019-02-12T05:54:20.581Z,1.80
2019-02-12T05:56:44.975Z,2.10
2019-02-12T05:59:09.422Z,1.97
2019-02-12T06:01:33.814Z,1.57
2019-02-12T06:03:58.267Z,1.80
2019-02-12T06:06:22.666Z,2.20
2019-02-12T06:08:47.108Z,1.90
2019-02-12T06:11:11.572Z,1.47
2019-02-12T06:13:36.007Z,1.73
2019-02-12T06:16:00.403Z,1.57
2019-02-12T06:18:24.824Z,2.17
2019-02-12T06:20:49.226Z,2.07
2019-02-12T06:23:13.655Z,1.97
2019-02-12T06:25:38.044Z,1.63
2019-02-12T06:28:02.443Z,1.30
2019-02-12T06:30:26.871Z,1.50
2019-02-12T06:32:51.269Z,1.50
2019-02-12T06:35:15.753Z,2.00
2019-02-12T06:37:40.145Z,1.27
2019-02-12T06:40:07.223Z,2.23
2019-02-12T06:42:31.675Z,2.00
2019-02-12T06:44:56.087Z,1.80
2019-02-12T06:47:20.529Z,2.47
2019-02-12T06:49:44.937Z,2.03
2019-02-12T06:52:09.351Z,1.93
2019-02-12T06:54:33.745Z,1.40
2019-02-12T06:56:58.174Z,1.87
2019-02-12T06:59:22.585Z,1.77
2019-02-12T07:01:47.011Z,2.27
2019-02-12T07:04:11.493Z,2.10
2019-02-12T07:07:07.518Z,1.87
2019-02-12T07:09:37.664Z,2.13
2019-02-12T07:12:37.968Z,1.90
2019-02-12T07:15:17.220Z,2.03
2019-02-12T07:17:50.232Z,1.77
2019-02-12T07:20:20.765Z,2.00
2019-02-12T07:22:56.295Z,1.87
2019-02-12T07:25:29.364Z,2.33
2019-02-12T07:28:14.782Z,2.20
2019-02-12T07:31:16.509Z,2.23
2019-02-12T07:33:49.539Z,1.70
2019-02-12T07:36:33.221Z,1.60
2019-02-12T07:39:04.142Z,2.10
2019-02-12T07:41:43.398Z,1.87
2019-02-12T07:44:28.731Z,1.77
2019-02-12T07:46:58.848Z,1.93
2019-02-12T07:49:47.166Z,1.80
2019-02-12T07:52:14.606Z,2.07
2019-02-12T07:55:02.527Z,2.30
2019-02-12T07:57:50.586Z,2.30
2019-02-12T08:00:20.819Z,2.20
2019-02-12T08:02:51.185Z,2.07
2019-02-12T08:05:18.650Z,2.23
2019-02-12T08:07:48.917Z,2.10
2019-02-12T08:10:22.503Z,2.20
2019-02-12T08:12:58.714Z,2.00
2019-02-12T08:15:48.592Z,2.57
2019-02-12T08:18:16.037Z,1.80
2019-02-12T08:20:55.281Z,2.40
2019-02-12T08:23:41.294Z,2.00
2019-02-12T08:26:21.794Z,1.80
2019-02-12T08:29:05.303Z,2.33
2019-02-12T08:31:49.042Z,2.10
2019-02-12T08:34:28.417Z,1.77
2019-02-12T08:37:04.356Z,1.80
2019-02-12T08:39:43.445Z,1.83
2019-02-12T08:42:31.498Z,2.30
2019-02-12T08:45:25.955Z,1.80
2019-02-12T08:48:08.244Z,1.80
2019-02-12T08:50:56.716Z,2.83
2019-02-12T08:53:30.121Z,2.20
2019-02-12T08:56:19.800Z,2.23
2019-02-12T08:58:49.817Z,2.60
2019-02-12T09:01:19.885Z,1.90
2019-02-12T09:04:05.089Z,2.00
2019-02-12T09:06:55.055Z,1.83
2019-02-12T09:09:53.948Z,1.97
2019-02-12T09:12:21.386Z,1.83
2019-02-12T09:14:51.532Z,2.40
2019-02-12T09:17:33.590Z,1.93
2019-02-12T09:20:01.053Z,1.83
2019-02-12T09:22:28.494Z,2.53
2019-02-12T09:25:08.057Z,2.07
2019-02-12T09:27:40.887Z,2.17
2019-02-12T09:30:29.337Z,2.50
2019-02-12T09:33:05.275Z,1.97
2019-02-12T09:35:32.771Z,1.80
2019-02-12T09:38:00.219Z,1.90
2019-02-12T09:40:36.455Z,1.97
2019-02-12T09:43:04.780Z,1.80
2019-02-12T09:45:59.049Z,2.40
2019-02-12T09:48:29.438Z,2.10
2019-02-12T09:51:09.037Z,2.03
2019-02-12T09:54:08.786Z,1.80
2019-02-12T09:56:59.070Z,1.77
2019-02-12T09:59:29.124Z,2.10
2019-02-12T10:02:05.240Z,1.83
2019-02-12T10:04:38.325Z,2.50
2019-02-12T10:07:17.448Z,2.13
2019-02-12T10:09:53.616Z,2.23
2019-02-12T10:12:26.697Z,2.13
2019-02-12T10:15:11.747Z,2.00
2019-02-12T10:17:42.129Z,1.97
2019-02-12T10:20:27.501Z,2.40
2019-02-12T10:23:29.740Z,2.07
2019-02-12T10:25:57.418Z,1.97
2019-02-12T10:28:48.747Z,2.13
2019-02-12T10:31:13.039Z,2.40
2019-02-12T10:33:37.600Z,1.80
2019-02-12T10:36:02.008Z,3.33
2019-02-12T10:38:26.485Z,2.30
2019-02-12T10:40:50.982Z,2.10
2019-02-12T10:43:15.390Z,2.27
2019-02-12T10:45:39.822Z,2.37
2019-02-12T10:48:04.203Z,1.73
2019-02-12T10:50:28.629Z,1.97
2019-02-12T10:52:53.031Z,2.50
2019-02-12T10:55:17.465Z,2.23
2019-02-12T10:57:41.867Z,2.27
2019-02-12T11:00:14.002Z,3.03
2019-02-12T11:02:38.400Z,2.30
2019-02-12T11:05:02.833Z,2.20
2019-02-12T11:07:27.241Z,2.30
2019-02-12T11:09:51.678Z,2.07
2019-02-12T11:12:16.097Z,2.87
2019-02-12T11:14:40.501Z,2.30
2019-02-12T11:17:05.009Z,2.43
2019-02-12T11:19:29.412Z,2.30
2019-02-12T11:21:53.830Z,2.53
2019-02-12T11:24:18.227Z,2.70
2019-02-12T11:26:42.672Z,3.23
2019-02-12T11:29:07.160Z,1.93
2019-02-12T11:31:31.583Z,3.73
2019-02-12T11:33:55.982Z,2.57
2019-02-12T11:36:20.440Z,2.50
2019-02-12T11:38:44.856Z,2.13
2019-02-12T11:41:09.349Z,3.07
2019-02-12T11:43:33.750Z,2.30
2019-02-12T11:45:58.156Z,2.00
2019-02-12T11:48:22.600Z,2.30
2019-02-12T11:50:47.002Z,2.50
2019-02-12T11:53:11.419Z,1.70
2019-02-12T11:55:35.833Z,1.83
2019-02-12T11:58:00.287Z,1.80
2019-02-12T12:00:26.404Z,1.70
2019-02-12T12:02:50.822Z,1.70
2019-02-12T12:05:15.231Z,2.03
2019-02-12T12:07:39.726Z,1.60
2019-02-12T12:10:05.764Z,2.10
2019-02-12T12:12:30.179Z,1.63
2019-02-12T12:14:54.592Z,1.90
2019-02-12T12:17:19.114Z,1.70
2019-02-12T12:19:43.509Z,2.10
2019-02-12T12:22:07.931Z,2.30
2019-02-12T12:24:32.359Z,1.40
2019-02-12T12:26:56.758Z,2.07
2019-02-12T12:29:21.181Z,1.67
2019-02-12T12:31:45.586Z,1.80
2019-02-12T12:34:10.002Z,1.60
2019-02-12T12:36:34.414Z,1.67
2019-02-12T12:38:58.852Z,1.80
2019-02-12T12:41:23.249Z,1.60
2019-02-12T12:43:47.683Z,1.40
2019-02-12T12:46:12.084Z,1.80
2019-02-12T12:48:36.506Z,2.20
2019-02-12T12:51:00.912Z,1.50
2019-02-12T12:53:25.356Z,1.83
2019-02-12T12:55:49.757Z,1.20
2019-02-12T12:58:14.157Z,1.53
2019-02-12T13:00:38.579Z,1.70
2019-02-12T13:03:02.999Z,1.73
2019-02-12T13:05:27.434Z,2.07
2019-02-12T13:07:51.848Z,1.80
2019-02-12T13:10:17.305Z,1.50
2019-02-12T13:12:41.774Z,2.00
2019-02-12T13:15:09.156Z,1.93
2019-02-12T13:17:33.555Z,2.57
2019-02-12T13:19:57.984Z,2.00
2019-02-12T13:22:22.388Z,1.80
2019-02-12T13:24:46.812Z,2.07
2019-02-12T13:27:11.209Z,1.83
2019-02-12T13:29:35.834Z,1.60
2019-02-12T13:32:00.253Z,1.57
2019-02-12T13:34:24.654Z,2.07
2019-02-12T13:36:49.083Z,1.50
2019-02-12T13:39:13.497Z,1.53
2019-02-12T13:41:37.997Z,1.70
2019-02-12T13:44:02.461Z,1.53
2019-02-12T13:46:26.909Z,1.77
2019-02-12T13:48:51.347Z,1.87
2019-02-12T13:51:15.836Z,1.60
2019-02-12T13:53:40.234Z,1.60
2019-02-12T13:56:04.724Z,1.40
2019-02-12T13:58:29.129Z,1.20
2019-02-12T14:00:53.555Z,1.10
2019-02-12T14:03:22.539Z,1.43
2019-02-12T14:05:44.108Z,1.67
2019-02-12T14:08:08.555Z,1.50
2019-02-12T14:10:32.958Z,2.07
2019-02-12T14:12:57.410Z,1.40
2019-02-12T14:15:21.800Z,2.00
2019-02-12T14:17:46.230Z,1.33
2019-02-12T14:20:17.428Z,2.43
2019-02-12T14:22:41.925Z,2.10
2019-02-12T14:25:09.067Z,2.07
2019-02-12T14:27:33.491Z,2.40
2019-02-12T14:29:57.896Z,1.80
2019-02-12T14:32:27.013Z,1.37
2019-02-12T14:34:51.545Z,1.40
2019-02-12T14:37:15.981Z,1.50
2019-02-12T14:39:40.383Z,1.10
2019-02-12T14:42:04.895Z,1.30
2019-02-12T14:44:29.303Z,1.10
2019-02-12T14:46:53.741Z,1.47
2019-02-12T14:49:18.152Z,1.60
2019-02-12T14:51:42.557Z,1.27
2019-02-12T14:54:07.395Z,1.33
2019-02-12T14:56:31.868Z,1.33
2019-02-12T14:58:56.297Z,1.70
2019-02-12T15:01:20.704Z,1.37
2019-02-12T15:03:45.207Z,1.30
2019-02-12T15:06:09.622Z,1.40
2019-02-12T15:08:34.083Z,1.50
2019-02-12T15:10:58.494Z,1.80
2019-02-12T15:13:23.046Z,1.43
2019-02-12T15:15:47.455Z,1.47
2019-02-12T15:18:11.939Z,1.30
2019-02-12T15:20:36.336Z,1.50
2019-02-12T15:23:00.766Z,1.30
2019-02-12T15:25:25.173Z,1.30
2019-02-12T15:27:49.561Z,1.57
2019-02-12T15:30:18.078Z,1.67
2019-02-12T15:32:42.545Z,1.90
2019-02-12T15:35:08.823Z,1.70
2019-02-12T15:37:33.221Z,1.83
2019-02-12T15:39:57.638Z,2.80
2019-02-12T15:42:22.034Z,3.80
2019-02-12T15:44:46.535Z,3.70
2019-02-12T15:47:11.020Z,1.93
2019-02-12T15:49:35.438Z,1.63
2019-02-12T15:51:59.838Z,1.27
2019-02-12T15:54:24.340Z,1.50
2019-02-12T15:56:48.730Z,1.30
2019-02-12T15:59:14.410Z,2.20
2019-02-12T16:01:39.249Z,1.47
2019-02-12T16:04:03.894Z,1.67
2019-02-12T16:06:28.336Z,1.30
2019-02-12T16:08:53.973Z,2.13
2019-02-12T16:11:19.517Z,2.70
2019-02-12T16:13:44.951Z,2.97
2019-02-12T16:16:09.939Z,2.83
2019-02-12T16:18:34.374Z,1.80
2019-02-12T16:20:58.799Z,2.23
2019-02-12T16:23:23.202Z,1.80
2019-02-12T16:25:47.636Z,1.77
2019-02-12T16:28:12.046Z,1.87
2019-02-12T16:30:36.534Z,2.20
2019-02-12T16:33:01.013Z,1.70
2019-02-12T16:35:25.444Z,1.80
2019-02-12T16:37:49.838Z,1.80
2019-02-12T16:40:18.626Z,2.27
2019-02-12T16:42:43.165Z,1.80
2019-02-12T16:45:10.623Z,2.70
2019-02-12T16:47:35.077Z,3.23
2019-02-12T16:49:59.722Z,2.20
2019-02-12T16:52:24.181Z,2.50
2019-02-12T16:54:48.584Z,2.20
2019-02-12T16:57:13.086Z,2.70
2019-02-12T16:59:37.475Z,2.10
2019-02-12T17:02:01.912Z,2.03
2019-02-12T17:04:26.328Z,2.00
2019-02-12T17:06:51.136Z,2.20
2019-02-12T17:09:15.605Z,2.30
2019-02-12T17:11:40.032Z,2.30
2019-02-12T17:14:04.588Z,2.47
2019-02-12T17:16:29.044Z,2.03
2019-02-12T17:18:53.447Z,2.30
2019-02-12T17:21:17.871Z,2.53
2019-02-12T17:23:42.412Z,2.40
2019-02-12T17:26:06.822Z,2.70
2019-02-12T17:28:31.336Z,2.40
2019-02-12T17:30:55.739Z,2.47
2019-02-12T17:33:20.182Z,2.60
2019-02-12T17:35:44.586Z,2.70
2019-02-12T17:38:09.011Z,2.33
2019-02-12T17:40:33.415Z,2.30
2019-02-12T17:42:57.855Z,2.60
2019-02-12T17:45:22.410Z,2.67
2019-02-12T17:47:46.859Z,2.30
2019-02-12T17:50:13.243Z,2.37
2019-02-12T17:52:37.756Z,2.97
2019-02-12T17:55:02.240Z,2.50
2019-02-12T17:57:26.754Z,2.50
2019-02-12T17:59:51.171Z,2.93
2019-02-12T18:02:30.976Z,2.80
2019-02-12T18:04:55.393Z,3.20
2019-02-12T18:07:19.838Z,2.53
2019-02-12T18:09:44.272Z,2.87
2019-02-12T18:12:08.719Z,2.90
2019-02-12T18:14:33.151Z,2.87
2019-02-12T18:16:57.574Z,3.80
2019-02-12T18:19:21.995Z,2.70
2019-02-12T18:21:46.467Z,2.80
2019-02-12T18:24:10.908Z,3.60
2019-02-12T18:26:35.354Z,3.67
2019-02-12T18:28:59.806Z,4.43
2019-02-12T18:31:24.212Z,3.27
2019-02-12T18:33:48.652Z,3.53
2019-02-12T18:36:13.064Z,3.20
2019-02-12T18:38:37.544Z,3.47
2019-02-12T18:41:01.973Z,3.57
2019-02-12T18:43:26.419Z,3.60
2019-02-12T18:45:50.904Z,3.60
2019-02-12T18:48:15.367Z,4.37
2019-02-12T18:50:42.777Z,3.43
2019-02-12T18:53:07.278Z,3.60
2019-02-12T18:55:31.756Z,3.50
2019-02-12T18:57:56.229Z,3.30
2019-02-12T19:00:22.102Z,3.40
2019-02-12T19:02:46.581Z,3.57
2019-02-12T19:05:11.426Z,3.80
2019-02-12T19:07:36.070Z,3.97
2019-02-12T19:10:00.595Z,4.00
2019-02-12T19:12:25.100Z,3.57
2019-02-12T19:14:49.482Z,3.57
2019-02-12T19:17:13.904Z,4.03
2019-02-12T19:19:38.353Z,4.73
2019-02-12T19:22:02.828Z,4.73
2019-02-12T19:24:27.328Z,5.17
2019-02-12T19:26:51.732Z,6.07
2019-02-12T19:29:16.171Z,5.57
2019-02-12T19:31:40.575Z,5.80
2019-02-12T19:34:05.080Z,6.07
2019-02-12T19:36:29.491Z,8.27
2019-02-12T19:38:53.894Z,6.77
2019-02-12T19:41:18.353Z,6.00
2019-02-12T19:43:42.853Z,6.27
2019-02-12T19:46:07.290Z,6.30
2019-02-12T19:48:31.704Z,6.50
2019-02-12T19:50:56.163Z,6.13
2019-02-12T19:53:20.603Z,6.83
2019-02-12T19:55:45.055Z,6.37
2019-02-12T19:58:09.455Z,7.53
2019-02-12T20:00:33.965Z,7.80
2019-02-12T20:02:58.387Z,8.10
2019-02-12T20:05:23.075Z,8.07
2019-02-12T20:07:47.515Z,7.57
2019-02-12T20:10:13.261Z,8.80
2019-02-12T20:12:37.703Z,8.37
2019-02-12T20:15:02.105Z,8.27
2019-02-12T20:17:28.122Z,9.03
2019-02-12T20:19:52.557Z,8.60
2019-02-12T20:22:16.995Z,9.57
2019-02-12T20:24:41.393Z,9.73
2019-02-12T20:27:06.853Z,9.40
2019-02-12T20:29:31.420Z,9.87
2019-02-12T20:31:55.860Z,10.03
2019-02-12T20:34:20.497Z,10.67
2019-02-12T20:36:45.085Z,11.50
2019-02-12T20:39:09.508Z,11.23
2019-02-12T20:41:33.941Z,12.70
2019-02-12T20:43:58.349Z,11.07
2019-02-12T20:46:22.895Z,12.33
2019-02-12T20:48:47.358Z,12.83
2019-02-12T20:51:11.769Z,12.80
2019-02-12T20:53:36.282Z,13.07
2019-02-12T20:56:00.700Z,13.77
2019-02-12T20:58:25.212Z,14.20
2019-02-12T21:00:49.711Z,14.40
2019-02-12T21:03:14.167Z,14.63
2019-02-12T21:05:38.671Z,15.03
2019-02-12T21:08:03.095Z,15.13
2019-02-12T21:10:27.551Z,15.37
2019-02-12T21:12:52.064Z,15.80
2019-02-12T21:15:31.857Z,16.03
2019-02-12T21:17:56.273Z,16.43
2019-02-12T21:20:20.787Z,16.43
2019-02-12T21:22:45.284Z,16.87
2019-02-12T21:25:11.381Z,15.93
2019-02-12T21:27:35.790Z,16.80
2019-02-12T21:30:00.294Z,17.27
2019-02-12T21:32:27.761Z,18.00
2019-02-12T21:34:52.192Z,18.53
2019-02-12T21:37:16.619Z,18.00
2019-02-12T21:39:41.037Z,17.70
2019-02-12T21:42:05.469Z,18.77
2019-02-12T21:44:29.877Z,18.43
2019-02-12T21:46:54.314Z,19.07
2019-02-12T21:49:18.807Z,19.07
2019-02-12T21:51:43.239Z,19.90
2019-02-12T21:54:07.663Z,18.57
2019-02-12T21:56:32.091Z,19.53
2019-02-12T21:58:56.523Z,20.13
2019-02-12T22:01:20.966Z,19.33
2019-02-12T22:03:45.378Z,19.33
2019-02-12T22:06:09.830Z,19.77
2019-02-12T22:08:34.237Z,18.70
2019-02-12T22:10:58.684Z,19.80
2019-02-12T22:13:23.095Z,19.07
2019-02-12T22:15:47.521Z,19.30
2019-02-12T22:18:11.956Z,19.17
2019-02-12T22:20:36.363Z,19.70
2019-02-12T22:23:01.922Z,21.03
2019-02-12T22:25:26.480Z,20.00
2019-02-12T22:27:50.986Z,20.90
2019-02-12T22:30:20.572Z,20.20
2019-02-12T22:32:44.974Z,20.70
2019-02-12T22:35:09.467Z,19.60
2019-02-12T22:37:33.873Z,20.40
2019-02-12T22:39:58.317Z,20.17
2019-02-12T22:42:22.735Z,21.13
2019-02-12T22:44:47.243Z,20.57
2019-02-12T22:47:11.671Z,21.40
2019-02-12T22:49:36.100Z,21.03
2019-02-12T22:52:00.541Z,21.60
2019-02-12T22:54:24.998Z,21.27
2019-02-12T22:56:49.409Z,21.73
2019-02-12T22:59:13.966Z,21.13
2019-02-12T23:01:38.560Z,21.90
2019-02-12T23:04:03.034Z,20.70
2019-02-12T23:06:27.474Z,21.07
2019-02-12T23:08:51.902Z,21.37
2019-02-12T23:11:16.346Z,20.63
2019-02-12T23:13:40.787Z,21.47
2019-02-12T23:16:05.360Z,21.67
2019-02-12T23:18:29.838Z,22.17
2019-02-12T23:20:54.270Z,20.73
2019-02-12T23:23:18.686Z,21.97
2019-02-12T23:25:43.125Z,21.50
2019-02-12T23:28:07.539Z,22.43
2019-02-12T23:30:32.033Z,21.93
2019-02-12T23:32:56.506Z,21.73
2019-02-12T23:35:20.920Z,22.67
2019-02-12T23:37:45.437Z,21.57
2019-02-12T23:40:09.926Z,21.43
2019-02-12T23:42:34.358Z,20.83
2019-02-12T23:44:58.768Z,21.07
2019-02-12T23:47:23.205Z,22.17
2019-02-12T23:49:47.615Z,22.33
2019-02-12T23:52:12.056Z,22.10
2019-02-12T23:54:36.452Z,20.83
2019-02-12T23:57:00.892Z,21.83
2019-02-12T23:59:25.300Z,22.23
